createdAt,value
2023-04-21T00:00:20.557Z,23.33
2023-04-21T00:01:20.595Z,23.35
2023-04-21T00:02:20.710Z,23.38
2023-04-21T00:03:20.843Z,23.39
2023-04-21T00:04:20.859Z,23.40
2023-04-21T00:05:20.939Z,23.41
2023-04-21T00:06:20.847Z,23.42
2023-04-21T00:07:20.863Z,23.42
2023-04-21T00:08:20.892Z,23.42
2023-04-21T00:09:21.109Z,23.43
2023-04-21T00:10:20.932Z,23.43
2023-04-21T00:11:20.989Z,23.43
2023-04-21T00:12:20.977Z,23.43
2023-04-21T00:13:21.002Z,23.43
2023-04-21T00:14:20.971Z,23.44
2023-04-21T00:15:21.017Z,23.43
2023-04-21T00:16:20.992Z,23.43
2023-04-21T00:17:20.955Z,23.43
2023-04-21T00:18:20.981Z,23.44
2023-04-21T00:19:21.272Z,23.44
2023-04-21T00:20:21.021Z,23.43
2023-04-21T00:21:21.017Z,23.44
2023-04-21T00:22:20.992Z,23.43
2023-04-21T00:23:20.987Z,23.43
2023-04-21T00:24:21.007Z,23.43
2023-04-21T00:25:21.005Z,23.42
2023-04-21T00:26:21.070Z,23.43
2023-04-21T00:27:21.141Z,23.43
2023-04-21T00:28:21.182Z,23.42
2023-04-21T00:29:21.535Z,23.42
2023-04-21T00:30:21.187Z,23.42
2023-04-21T00:31:21.200Z,23.42
2023-04-21T00:32:21.229Z,23.42
2023-04-21T00:33:21.186Z,23.42
2023-04-21T00:34:21.196Z,23.41
2023-04-21T00:35:21.182Z,23.42
2023-04-21T00:36:21.190Z,23.41
2023-04-21T00:37:21.178Z,23.41
2023-04-21T00:38:21.174Z,23.42
2023-04-21T00:39:21.383Z,23.42
2023-04-21T00:40:21.137Z,23.42
2023-04-21T00:41:21.175Z,23.42
2023-04-21T00:42:21.152Z,23.42
2023-04-21T00:43:21.118Z,23.41
2023-04-21T00:44:21.106Z,23.42
2023-04-21T00:45:21.118Z,23.42
2023-04-21T00:46:21.154Z,23.42
2023-04-21T00:47:21.169Z,23.42
2023-04-21T00:48:21.150Z,23.41
2023-04-21T00:49:21.213Z,23.42
2023-04-21T00:50:21.145Z,23.41
2023-04-21T00:51:21.247Z,23.41
2023-04-21T00:52:21.134Z,23.40
2023-04-21T00:53:21.127Z,23.41
2023-04-21T00:54:21.126Z,23.40
2023-04-21T00:55:21.154Z,23.40
2023-04-21T00:56:21.157Z,23.40
2023-04-21T00:57:21.193Z,23.41
2023-04-21T00:58:21.167Z,23.40
2023-04-21T00:59:21.428Z,23.41
2023-04-21T01:00:21.167Z,23.41
2023-04-21T01:01:21.312Z,23.40
2023-04-21T01:02:21.270Z,23.42
2023-04-21T01:03:21.331Z,23.41
2023-04-21T01:04:21.227Z,23.41
2023-04-21T01:05:21.179Z,23.41
2023-04-21T01:06:21.191Z,23.41
2023-04-21T01:07:21.157Z,23.41
2023-04-21T01:08:21.163Z,23.41
2023-04-21T01:09:21.406Z,23.41
2023-04-21T01:10:21.159Z,23.41
2023-04-21T01:11:21.223Z,23.41
2023-04-21T01:12:21.153Z,23.41
2023-04-21T01:13:21.150Z,23.41
2023-04-21T01:14:21.172Z,23.41
2023-04-21T01:15:21.180Z,23.42
2023-04-21T01:16:21.220Z,23.41
2023-04-21T01:17:21.207Z,23.42
2023-04-21T01:18:21.214Z,23.41
2023-04-21T01:19:21.282Z,23.42
2023-04-21T01:20:21.195Z,23.42
2023-04-21T01:21:21.250Z,23.41
2023-04-21T01:22:21.197Z,23.42
2023-04-21T01:23:21.212Z,23.42
2023-04-21T01:24:21.195Z,23.42
2023-04-21T01:25:21.208Z,23.42
2023-04-21T01:26:21.275Z,23.42
2023-04-21T01:27:21.232Z,23.42
2023-04-21T01:28:21.193Z,23.42
2023-04-21T01:29:21.266Z,23.42
2023-04-21T01:30:21.217Z,23.42
2023-04-21T01:31:21.227Z,23.42
2023-04-21T01:32:21.232Z,23.41
2023-04-21T01:33:21.197Z,23.41
2023-04-21T01:34:21.207Z,23.41
2023-04-21T01:35:21.154Z,23.41
2023-04-21T01:36:21.141Z,23.41
2023-04-21T01:37:21.123Z,23.41
2023-04-21T01:38:21.110Z,23.41
2023-04-21T01:39:21.379Z,23.41
2023-04-21T01:40:21.101Z,23.41
2023-04-21T01:41:21.088Z,23.41
2023-04-21T01:42:21.085Z,23.41
2023-04-21T01:43:21.059Z,23.41
2023-04-21T01:44:21.068Z,23.42
2023-04-21T01:45:21.035Z,23.42
2023-04-21T01:46:21.124Z,23.41
2023-04-21T01:47:21.027Z,23.42
2023-04-21T01:48:21.030Z,23.41
2023-04-21T01:49:21.144Z,23.42
2023-04-21T01:50:21.007Z,23.41
2023-04-21T01:51:21.078Z,23.41
2023-04-21T01:52:21.047Z,23.41
2023-04-21T01:53:21.047Z,23.41
2023-04-21T01:54:21.033Z,23.42
2023-04-21T01:55:21.009Z,23.41
2023-04-21T01:56:21.066Z,23.41
2023-04-21T01:57:21.041Z,23.42
2023-04-21T01:58:21.029Z,23.42
2023-04-21T01:59:21.252Z,23.42
2023-04-21T02:00:21.025Z,23.42
2023-04-21T02:01:21.067Z,23.41
2023-04-21T02:02:21.103Z,23.42
2023-04-21T02:03:21.271Z,23.42
2023-04-21T02:04:21.155Z,23.42
2023-04-21T02:05:21.024Z,23.42
2023-04-21T02:06:21.046Z,23.42
2023-04-21T02:07:21.037Z,23.43
2023-04-21T02:08:21.066Z,23.43
2023-04-21T02:09:21.195Z,23.42
2023-04-21T02:10:21.070Z,23.42
2023-04-21T02:11:21.140Z,23.42
2023-04-21T02:12:21.120Z,23.42
2023-04-21T02:13:21.109Z,23.42
2023-04-21T02:14:21.101Z,23.42
2023-04-21T02:15:21.094Z,23.41
2023-04-21T02:16:21.241Z,23.42
2023-04-21T02:17:21.120Z,23.42
2023-04-21T02:18:21.121Z,23.41
2023-04-21T02:19:21.351Z,23.40
2023-04-21T02:20:21.156Z,23.41
2023-04-21T02:21:21.219Z,23.40
2023-04-21T02:22:21.147Z,23.42
2023-04-21T02:23:21.160Z,23.41
2023-04-21T02:24:21.121Z,23.40
2023-04-21T02:25:21.122Z,23.41
2023-04-21T02:26:21.168Z,23.41
2023-04-21T02:27:21.130Z,23.41
2023-04-21T02:28:21.109Z,23.40
2023-04-21T02:29:21.356Z,23.40
2023-04-21T02:30:21.101Z,23.40
2023-04-21T02:31:21.182Z,23.40
2023-04-21T02:32:25.847Z,23.40
2023-04-21T02:33:21.116Z,23.39
2023-04-21T02:34:21.072Z,23.38
2023-04-21T02:35:21.044Z,23.38
2023-04-21T02:36:21.061Z,23.39
2023-04-21T02:37:21.079Z,23.39
2023-04-21T02:38:21.019Z,23.39
2023-04-21T02:39:21.153Z,23.40
2023-04-21T02:40:20.998Z,23.39
2023-04-21T02:41:21.032Z,23.39
2023-04-21T02:42:20.983Z,23.39
2023-04-21T02:43:20.980Z,23.39
2023-04-21T02:44:20.988Z,23.39
2023-04-21T02:45:20.987Z,23.38
2023-04-21T02:46:21.018Z,23.38
2023-04-21T02:47:20.992Z,23.39
2023-04-21T02:48:20.956Z,23.39
2023-04-21T02:49:21.184Z,23.39
2023-04-21T02:50:20.944Z,23.38
2023-04-21T02:51:20.945Z,23.39
2023-04-21T02:52:20.933Z,23.39
2023-04-21T02:53:20.972Z,23.39
2023-04-21T02:54:20.887Z,23.39
2023-04-21T02:55:20.875Z,23.38
2023-04-21T02:56:20.886Z,23.38
2023-04-21T02:57:20.865Z,23.38
2023-04-21T02:58:20.844Z,23.38
2023-04-21T02:59:21.002Z,23.38
2023-04-21T03:00:20.822Z,23.39
2023-04-21T03:01:20.937Z,23.38
2023-04-21T03:02:20.813Z,23.38
2023-04-21T03:03:20.968Z,23.38
2023-04-21T03:04:20.885Z,23.39
2023-04-21T03:05:20.761Z,23.38
2023-04-21T03:06:20.754Z,23.39
2023-04-21T03:07:20.749Z,23.38
2023-04-21T03:08:20.743Z,23.39
2023-04-21T03:09:20.907Z,23.38
2023-04-21T03:10:20.741Z,23.37
2023-04-21T03:11:20.721Z,23.37
2023-04-21T03:12:20.726Z,23.38
2023-04-21T03:13:20.717Z,23.37
2023-04-21T03:14:20.725Z,23.37
2023-04-21T03:15:20.685Z,23.37
2023-04-21T03:16:20.726Z,23.37
2023-04-21T03:17:20.667Z,23.37
2023-04-21T03:18:20.626Z,23.37
2023-04-21T03:19:20.786Z,23.37
2023-04-21T03:20:20.606Z,23.37
2023-04-21T03:21:20.625Z,23.37
2023-04-21T03:22:20.577Z,23.37
2023-04-21T03:23:20.586Z,23.36
2023-04-21T03:24:20.640Z,23.36
2023-04-21T03:25:20.574Z,23.36
2023-04-21T03:26:20.559Z,23.36
2023-04-21T03:27:20.539Z,23.36
2023-04-21T03:28:20.529Z,23.36
2023-04-21T03:29:20.737Z,23.36
2023-04-21T03:30:20.516Z,23.35
2023-04-21T03:31:20.573Z,23.36
2023-04-21T03:32:20.685Z,23.36
2023-04-21T03:33:20.510Z,23.35
2023-04-21T03:34:20.479Z,23.35
2023-04-21T03:35:20.468Z,23.36
2023-04-21T03:36:20.479Z,23.36
2023-04-21T03:37:20.454Z,23.36
2023-04-21T03:38:20.435Z,23.36
2023-04-21T03:39:20.787Z,23.36
2023-04-21T03:40:20.422Z,23.36
2023-04-21T03:41:20.440Z,23.36
2023-04-21T03:42:20.384Z,23.36
2023-04-21T03:43:20.370Z,23.36
2023-04-21T03:44:20.374Z,23.35
2023-04-21T03:45:20.362Z,23.36
2023-04-21T03:46:20.410Z,23.35
2023-04-21T03:47:20.380Z,23.36
2023-04-21T03:48:20.339Z,23.36
2023-04-21T03:49:20.554Z,23.36
2023-04-21T03:50:20.302Z,23.36
2023-04-21T03:51:20.326Z,23.36
2023-04-21T03:52:20.303Z,23.35
2023-04-21T03:53:20.342Z,23.35
2023-04-21T03:54:20.324Z,23.35
2023-04-21T03:55:20.340Z,23.35
2023-04-21T03:56:20.363Z,23.36
2023-04-21T03:57:20.382Z,23.35
2023-04-21T03:58:20.324Z,23.34
2023-04-21T03:59:20.618Z,23.35
2023-04-21T04:00:20.336Z,23.34
2023-04-21T04:01:20.355Z,23.35
2023-04-21T04:02:20.405Z,23.34
2023-04-21T04:03:22.679Z,23.33
2023-04-21T04:04:20.549Z,23.34
2023-04-21T04:05:20.349Z,23.34
2023-04-21T04:06:20.342Z,23.34
2023-04-21T04:07:20.268Z,23.34
2023-04-21T04:08:20.245Z,23.34
2023-04-21T04:09:20.587Z,23.34
2023-04-21T04:10:20.191Z,23.34
2023-04-21T04:11:20.172Z,23.34
2023-04-21T04:12:20.169Z,23.34
2023-04-21T04:13:20.185Z,23.34
2023-04-21T04:14:20.150Z,23.34
2023-04-21T04:15:20.132Z,23.34
2023-04-21T04:16:20.187Z,23.34
2023-04-21T04:17:20.113Z,23.34
2023-04-21T04:18:20.100Z,23.34
2023-04-21T04:19:20.331Z,23.34
2023-04-21T04:20:20.095Z,23.34
2023-04-21T04:21:20.084Z,23.34
2023-04-21T04:22:20.086Z,23.34
2023-04-21T04:23:20.072Z,23.34
2023-04-21T04:24:20.082Z,23.35
2023-04-21T04:25:20.069Z,23.34
2023-04-21T04:26:20.055Z,23.34
2023-04-21T04:27:20.030Z,23.34
2023-04-21T04:28:20.057Z,23.34
2023-04-21T04:29:20.196Z,23.34
2023-04-21T04:30:19.990Z,23.34
2023-04-21T04:31:20.052Z,23.34
2023-04-21T04:32:19.972Z,23.35
2023-04-21T04:33:20.005Z,23.34
2023-04-21T04:34:19.947Z,23.34
2023-04-21T04:35:19.931Z,23.34
2023-04-21T04:36:19.916Z,23.34
2023-04-21T04:37:19.910Z,23.34
2023-04-21T04:38:19.898Z,23.34
2023-04-21T04:39:20.141Z,23.34
2023-04-21T04:40:19.869Z,23.34
2023-04-21T04:41:19.851Z,23.34
2023-04-21T04:42:19.826Z,23.35
2023-04-21T04:43:19.811Z,23.34
2023-04-21T04:44:20.055Z,23.35
2023-04-21T04:45:19.809Z,23.35
2023-04-21T04:46:19.789Z,23.35
2023-04-21T04:47:19.806Z,23.35
2023-04-21T04:48:19.760Z,23.35
2023-04-21T04:49:20.221Z,23.35
2023-04-21T04:50:19.745Z,23.35
2023-04-21T04:51:19.752Z,23.34
2023-04-21T04:52:19.713Z,23.35
2023-04-21T04:53:19.729Z,23.34
2023-04-21T04:54:19.861Z,23.34
2023-04-21T04:55:19.717Z,23.35
2023-04-21T04:56:19.736Z,23.34
2023-04-21T04:57:19.787Z,23.35
2023-04-21T04:58:19.820Z,23.35
2023-04-21T04:59:19.856Z,23.35
2023-04-21T05:00:19.895Z,23.35
2023-04-21T05:01:20.033Z,23.35
2023-04-21T05:02:20.121Z,23.35
2023-04-21T05:03:20.186Z,23.35
2023-04-21T05:04:20.538Z,23.36
2023-04-21T05:05:19.938Z,23.35
2023-04-21T05:06:19.962Z,23.35
2023-04-21T05:07:20.188Z,23.35
2023-04-21T05:08:20.007Z,23.35
2023-04-21T05:09:20.015Z,23.36
2023-04-21T05:10:20.673Z,23.35
2023-04-21T05:11:20.005Z,23.35
2023-04-21T05:12:20.023Z,23.35
2023-04-21T05:13:20.036Z,23.36
2023-04-21T05:14:20.347Z,23.35
2023-04-21T05:15:20.058Z,23.35
2023-04-21T05:16:20.053Z,23.36
2023-04-21T05:17:20.090Z,23.36
2023-04-21T05:18:20.057Z,23.36
2023-04-21T05:19:20.050Z,23.36
2023-04-21T05:20:20.213Z,23.35
2023-04-21T05:21:20.180Z,23.36
2023-04-21T05:22:20.026Z,23.36
2023-04-21T05:23:20.036Z,23.36
2023-04-21T05:24:20.259Z,23.36
2023-04-21T05:25:20.034Z,23.36
2023-04-21T05:26:20.041Z,23.36
2023-04-21T05:27:20.205Z,23.36
2023-04-21T05:28:20.003Z,23.36
2023-04-21T05:29:19.988Z,23.37
2023-04-21T05:30:19.991Z,23.37
2023-04-21T05:31:19.988Z,23.37
2023-04-21T05:32:20.456Z,23.37
2023-04-21T05:33:20.135Z,23.38
2023-04-21T05:34:20.239Z,23.39
2023-04-21T05:35:20.053Z,23.38
2023-04-21T05:36:20.073Z,23.38
2023-04-21T05:37:20.058Z,23.39
2023-04-21T05:38:20.205Z,23.39
2023-04-21T05:39:20.044Z,23.39
2023-04-21T05:40:20.025Z,23.39
2023-04-21T05:41:20.040Z,23.39
2023-04-21T05:42:20.188Z,23.40
2023-04-21T05:43:20.019Z,23.40
2023-04-21T05:44:20.185Z,23.41
2023-04-21T05:45:20.038Z,23.41
2023-04-21T05:46:20.086Z,23.42
2023-04-21T05:47:20.228Z,23.42
2023-04-21T05:48:20.198Z,23.43
2023-04-21T05:49:20.084Z,23.43
2023-04-21T05:50:20.202Z,23.43
2023-04-21T05:51:20.076Z,23.44
2023-04-21T05:52:20.044Z,23.44
2023-04-21T05:53:23.268Z,23.44
2023-04-21T05:54:20.282Z,23.45
2023-04-21T05:55:20.212Z,23.47
2023-04-21T05:56:20.032Z,23.47
2023-04-21T05:57:23.211Z,23.47
2023-04-21T05:58:20.001Z,23.41
2023-04-21T05:59:20.196Z,23.29
2023-04-21T06:00:20.015Z,23.11
2023-04-21T06:01:35.599Z,22.91
2023-04-21T06:02:27.521Z,22.82
2023-04-21T06:03:20.141Z,22.75
2023-04-21T06:04:20.886Z,22.66
2023-04-21T06:05:19.997Z,22.62
2023-04-21T06:06:23.400Z,22.56
2023-04-21T06:07:19.965Z,22.50
2023-04-21T06:08:19.948Z,22.50
2023-04-21T06:09:19.937Z,22.56
2023-04-21T06:10:19.936Z,22.64
2023-04-21T06:11:20.203Z,22.70
2023-04-21T06:12:20.221Z,22.79
2023-04-21T06:13:19.940Z,22.85
2023-04-21T06:14:20.169Z,22.93
2023-04-21T06:15:19.917Z,23.00
2023-04-21T06:16:20.261Z,23.07
2023-04-21T06:17:20.199Z,23.13
2023-04-21T06:18:19.920Z,23.19
2023-04-21T06:19:19.910Z,23.24
2023-04-21T06:20:19.899Z,23.29
2023-04-21T06:21:20.526Z,23.34
2023-04-21T06:22:20.200Z,23.39
2023-04-21T06:23:19.866Z,23.43
2023-04-21T06:24:20.113Z,23.47
2023-04-21T06:25:19.815Z,23.51
2023-04-21T06:26:19.800Z,23.55
2023-04-21T06:27:19.784Z,23.59
2023-04-21T06:28:19.761Z,23.63
2023-04-21T06:29:19.771Z,23.66
2023-04-21T06:30:19.729Z,23.71
2023-04-21T06:31:19.793Z,23.74
2023-04-21T06:32:20.263Z,23.77
2023-04-21T06:33:19.705Z,23.79
2023-04-21T06:34:20.089Z,23.80
2023-04-21T06:35:19.782Z,23.83
2023-04-21T06:36:19.820Z,23.85
2023-04-21T06:37:20.231Z,23.88
2023-04-21T06:38:19.913Z,23.91
2023-04-21T06:39:19.921Z,23.94
2023-04-21T06:40:19.954Z,23.96
2023-04-21T06:41:19.977Z,23.97
2023-04-21T06:42:20.224Z,23.99
2023-04-21T06:43:21.014Z,24.00
2023-04-21T06:44:20.257Z,24.01
2023-04-21T06:45:20.278Z,24.01
2023-04-21T06:46:20.282Z,24.04
2023-04-21T06:47:20.556Z,24.07
2023-04-21T06:48:20.129Z,24.09
2023-04-21T06:49:20.826Z,24.10
2023-04-21T06:50:20.426Z,24.08
2023-04-21T06:51:20.622Z,23.99
2023-04-21T06:52:20.352Z,23.81
2023-04-21T06:53:20.280Z,23.62
2023-04-21T06:54:20.274Z,23.48
2023-04-21T06:55:20.257Z,23.32
2023-04-21T06:56:20.272Z,23.23
2023-04-21T06:57:20.734Z,23.22
2023-04-21T06:58:21.366Z,23.24
2023-04-21T06:59:20.652Z,23.27
2023-04-21T07:00:20.345Z,23.32
2023-04-21T07:01:20.383Z,23.35
2023-04-21T07:02:20.936Z,23.39
2023-04-21T07:03:20.409Z,23.44
2023-04-21T07:04:20.452Z,23.49
2023-04-21T07:05:20.421Z,23.54
2023-04-21T07:06:20.459Z,23.58
2023-04-21T07:07:20.499Z,23.64
2023-04-21T07:08:20.721Z,23.68
2023-04-21T07:09:20.803Z,23.72
2023-04-21T07:10:20.630Z,23.76
2023-04-21T07:11:20.677Z,23.81
2023-04-21T07:12:20.737Z,23.84
2023-04-21T07:13:20.761Z,23.85
2023-04-21T07:14:20.813Z,23.89
2023-04-21T07:15:20.829Z,23.90
2023-04-21T07:16:20.884Z,23.92
2023-04-21T07:17:21.230Z,23.93
2023-04-21T07:18:20.916Z,23.96
2023-04-21T07:19:21.132Z,23.98
2023-04-21T07:20:20.980Z,23.98
2023-04-21T07:21:21.011Z,24.01
2023-04-21T07:22:21.232Z,24.02
2023-04-21T07:23:21.067Z,24.05
2023-04-21T07:24:21.162Z,24.06
2023-04-21T07:25:21.251Z,24.08
2023-04-21T07:26:21.103Z,24.08
2023-04-21T07:27:21.237Z,24.11
2023-04-21T07:28:21.171Z,24.11
2023-04-21T07:29:21.339Z,24.11
2023-04-21T07:30:21.232Z,24.12
2023-04-21T07:31:21.232Z,24.11
2023-04-21T07:32:21.307Z,24.09
2023-04-21T07:33:21.302Z,24.08
2023-04-21T07:34:21.310Z,24.06
2023-04-21T07:35:21.754Z,24.05
2023-04-21T07:36:21.379Z,24.01
2023-04-21T07:37:21.404Z,23.96
2023-04-21T07:38:21.456Z,23.92
2023-04-21T07:39:22.517Z,23.89
2023-04-21T07:40:21.927Z,23.87
2023-04-21T07:41:23.053Z,23.86
2023-04-21T07:42:22.257Z,23.86
2023-04-21T07:43:22.225Z,23.86
2023-04-21T07:44:22.266Z,23.86
2023-04-21T07:45:22.152Z,23.86
2023-04-21T07:46:22.368Z,23.89
2023-04-21T07:47:22.631Z,23.90
2023-04-21T07:48:23.173Z,23.94
2023-04-21T07:49:22.633Z,23.95
2023-04-21T07:50:22.279Z,23.98
2023-04-21T07:51:22.421Z,24.01
2023-04-21T07:52:22.515Z,24.04
2023-04-21T07:53:22.272Z,24.06
2023-04-21T07:54:22.635Z,24.09
2023-04-21T07:55:22.422Z,24.03
2023-04-21T07:56:22.594Z,23.89
2023-04-21T07:57:22.794Z,23.73
2023-04-21T07:58:22.654Z,23.49
2023-04-21T07:59:22.595Z,23.24
2023-04-21T08:00:22.698Z,23.05
2023-04-21T08:01:22.538Z,22.93
2023-04-21T08:02:23.022Z,22.90
2023-04-21T08:03:24.616Z,22.88
2023-04-21T08:04:22.864Z,22.91
2023-04-21T08:05:22.645Z,22.97
2023-04-21T08:06:22.549Z,22.99
2023-04-21T08:07:22.925Z,23.02
2023-04-21T08:08:22.581Z,23.08
2023-04-21T08:09:22.820Z,23.11
2023-04-21T08:10:22.493Z,23.16
2023-04-21T08:11:22.566Z,23.19
2023-04-21T08:12:22.459Z,23.22
2023-04-21T08:13:22.542Z,23.24
2023-04-21T08:14:22.530Z,23.27
2023-04-21T08:15:22.557Z,23.30
2023-04-21T08:16:22.479Z,23.33
2023-04-21T08:17:22.497Z,23.34
2023-04-21T08:18:22.883Z,23.36
2023-04-21T08:19:22.681Z,23.36
2023-04-21T08:20:23.110Z,23.38
2023-04-21T08:21:22.541Z,23.41
2023-04-21T08:22:22.409Z,23.42
2023-04-21T08:23:22.469Z,23.43
2023-04-21T08:24:22.815Z,23.43
2023-04-21T08:25:23.077Z,23.37
2023-04-21T08:26:22.482Z,23.17
2023-04-21T08:27:22.603Z,22.92
2023-04-21T08:28:22.584Z,22.63
2023-04-21T08:29:23.366Z,22.44
2023-04-21T08:30:22.667Z,22.40
2023-04-21T08:31:23.899Z,22.44
2023-04-21T08:32:23.817Z,22.50
2023-04-21T08:33:22.961Z,22.58
2023-04-21T08:34:25.730Z,22.65
2023-04-21T08:35:22.964Z,22.72
2023-04-21T08:36:29.379Z,22.79
2023-04-21T08:37:23.455Z,22.85
2023-04-21T08:38:23.073Z,22.91
2023-04-21T08:39:23.025Z,22.98
2023-04-21T08:40:23.088Z,23.03
2023-04-21T08:41:23.022Z,23.08
2023-04-21T08:42:23.394Z,23.11
2023-04-21T08:43:23.101Z,23.15
2023-04-21T08:44:23.456Z,23.19
2023-04-21T08:45:30.601Z,23.24
2023-04-21T08:46:23.731Z,23.28
2023-04-21T08:47:39.275Z,23.34
2023-04-21T08:48:22.932Z,23.39
2023-04-21T08:49:23.460Z,23.46
2023-04-21T08:50:23.108Z,23.52
2023-04-21T08:51:22.813Z,23.57
2023-04-21T08:52:22.764Z,23.63
2023-04-21T08:53:22.709Z,23.68
2023-04-21T08:54:22.692Z,23.75
2023-04-21T08:55:22.670Z,23.78
2023-04-21T08:56:22.658Z,23.83
2023-04-21T08:57:22.765Z,23.87
2023-04-21T08:58:22.645Z,23.91
2023-04-21T08:59:22.713Z,23.94
2023-04-21T09:00:22.641Z,23.98
2023-04-21T09:01:22.867Z,24.01
2023-04-21T09:02:22.910Z,24.04
2023-04-21T09:03:25.852Z,24.06
2023-04-21T09:04:22.750Z,24.07
2023-04-21T09:05:22.984Z,24.08
2023-04-21T09:06:22.802Z,24.11
2023-04-21T09:07:22.508Z,24.14
2023-04-21T09:08:22.483Z,24.16
2023-04-21T09:09:22.466Z,24.17
2023-04-21T09:10:22.776Z,24.19
2023-04-21T09:11:22.452Z,24.20
2023-04-21T09:12:22.424Z,24.20
2023-04-21T09:13:22.404Z,24.21
2023-04-21T09:14:22.390Z,24.21
2023-04-21T09:15:22.384Z,24.22
2023-04-21T09:16:22.867Z,24.24
2023-04-21T09:17:22.816Z,24.26
2023-04-21T09:18:22.544Z,24.27
2023-04-21T09:19:22.514Z,24.28
2023-04-21T09:20:22.844Z,24.29
2023-04-21T09:21:22.779Z,24.31
2023-04-21T09:22:22.284Z,24.33
2023-04-21T09:23:22.784Z,24.33
2023-04-21T09:24:22.300Z,24.34
2023-04-21T09:25:22.334Z,24.34
2023-04-21T09:26:22.320Z,24.36
2023-04-21T09:27:22.779Z,24.37
2023-04-21T09:28:22.345Z,24.38
2023-04-21T09:29:22.799Z,24.40
2023-04-21T09:30:22.340Z,24.40
2023-04-21T09:31:22.368Z,24.41
2023-04-21T09:32:22.474Z,24.42
2023-04-21T09:33:29.632Z,24.42
2023-04-21T09:34:22.833Z,24.38
2023-04-21T09:35:22.310Z,24.34
2023-04-21T09:36:22.278Z,24.31
2023-04-21T09:37:22.289Z,24.26
2023-04-21T09:38:22.269Z,24.23
2023-04-21T09:39:38.342Z,24.20
2023-04-21T09:40:22.252Z,24.15
2023-04-21T09:41:22.309Z,24.13
2023-04-21T09:42:22.285Z,24.08
2023-04-21T09:43:22.186Z,24.04
2023-04-21T09:44:23.459Z,24.03
2023-04-21T09:46:21.371Z,24.02
2023-04-21T09:47:22.325Z,24.05
2023-04-21T09:48:22.618Z,24.07
2023-04-21T09:49:22.253Z,24.09
2023-04-21T09:50:39.350Z,24.11
2023-04-21T09:51:35.181Z,24.12
2023-04-21T09:52:22.290Z,24.16
2023-04-21T09:53:22.163Z,24.20
2023-04-21T09:54:29.667Z,24.24
2023-04-21T09:55:22.129Z,24.29
2023-04-21T09:56:22.114Z,24.31
2023-04-21T09:57:22.088Z,24.34
2023-04-21T09:58:22.072Z,24.36
2023-04-21T09:59:23.654Z,24.38
2023-04-21T10:00:22.274Z,24.41
2023-04-21T10:01:22.298Z,24.42
2023-04-21T10:02:22.400Z,24.45
2023-04-21T10:03:22.431Z,24.46
2023-04-21T10:04:22.975Z,24.47
2023-04-21T10:05:22.289Z,24.49
2023-04-21T10:06:22.224Z,24.51
2023-04-21T10:07:22.200Z,24.53
2023-04-21T10:08:22.397Z,24.52
2023-04-21T10:09:22.192Z,24.53
2023-04-21T10:10:22.170Z,24.54
2023-04-21T10:11:22.163Z,24.55
2023-04-21T10:12:22.163Z,24.56
2023-04-21T10:13:22.152Z,24.57
2023-04-21T10:14:22.632Z,24.57
2023-04-21T10:15:22.137Z,24.58
2023-04-21T10:16:22.165Z,24.59
2023-04-21T10:17:22.348Z,24.58
2023-04-21T10:18:22.117Z,24.59
2023-04-21T10:19:22.302Z,24.59
2023-04-21T10:20:22.302Z,24.60
2023-04-21T10:21:22.294Z,24.60
2023-04-21T10:22:22.365Z,24.60
2023-04-21T10:23:22.303Z,24.60
2023-04-21T10:24:22.946Z,24.59
2023-04-21T10:25:22.064Z,24.61
2023-04-21T10:26:22.064Z,24.61
2023-04-21T10:27:22.065Z,24.62
2023-04-21T10:28:22.311Z,24.61
2023-04-21T10:29:22.057Z,24.62
2023-04-21T10:30:22.070Z,24.44
2023-04-21T10:31:22.151Z,24.35
2023-04-21T10:32:22.144Z,24.30
2023-04-21T10:33:22.133Z,24.28
2023-04-21T10:34:22.347Z,24.29
2023-04-21T10:35:22.191Z,24.28
2023-04-21T10:36:22.216Z,24.29
2023-04-21T10:37:22.380Z,24.30
2023-04-21T10:38:22.266Z,24.31
2023-04-21T10:39:22.287Z,24.33
2023-04-21T10:40:27.564Z,24.35
2023-04-21T10:41:22.287Z,24.37
2023-04-21T10:42:22.245Z,24.38
2023-04-21T10:43:22.329Z,24.40
2023-04-21T10:44:22.484Z,24.42
2023-04-21T10:45:22.216Z,24.44
2023-04-21T10:46:22.232Z,24.46
2023-04-21T10:47:22.240Z,24.48
2023-04-21T10:48:22.151Z,24.50
2023-04-21T10:49:22.141Z,24.52
2023-04-21T10:50:22.095Z,24.54
2023-04-21T10:51:22.066Z,24.55
2023-04-21T10:52:22.040Z,24.56
2023-04-21T10:53:22.054Z,24.57
2023-04-21T10:54:22.183Z,24.58
2023-04-21T10:55:21.976Z,24.58
2023-04-21T10:56:21.954Z,24.59
2023-04-21T10:57:21.952Z,24.60
2023-04-21T10:58:21.936Z,24.61
2023-04-21T10:59:21.894Z,24.61
2023-04-21T11:00:21.893Z,24.50
2023-04-21T11:01:21.934Z,24.16
2023-04-21T11:02:21.985Z,23.69
2023-04-21T11:03:22.537Z,23.34
2023-04-21T11:04:22.822Z,23.09
2023-04-21T11:05:22.057Z,22.80
2023-04-21T11:06:22.134Z,22.56
2023-04-21T11:07:22.232Z,22.50
2023-04-21T11:08:22.294Z,22.51
2023-04-21T11:09:22.866Z,22.56
2023-04-21T11:10:22.412Z,22.61
2023-04-21T11:11:22.460Z,22.68
2023-04-21T11:12:23.531Z,22.75
2023-04-21T11:13:22.592Z,22.80
2023-04-21T11:14:22.833Z,22.82
2023-04-21T11:15:22.720Z,22.85
2023-04-21T11:16:22.851Z,22.90
2023-04-21T11:17:22.879Z,22.95
2023-04-21T11:18:23.325Z,23.00
2023-04-21T11:19:22.920Z,23.05
2023-04-21T11:20:23.336Z,23.11
2023-04-21T11:21:22.974Z,23.17
2023-04-21T11:22:23.006Z,23.22
2023-04-21T11:23:23.333Z,23.29
2023-04-21T11:24:23.033Z,23.34
2023-04-21T11:25:23.039Z,23.40
2023-04-21T11:26:23.061Z,23.44
2023-04-21T11:27:23.037Z,23.48
2023-04-21T11:28:23.089Z,23.52
2023-04-21T11:29:23.148Z,23.58
2023-04-21T11:30:23.196Z,23.63
2023-04-21T11:31:23.269Z,23.67
2023-04-21T11:32:23.319Z,23.70
2023-04-21T11:33:23.836Z,23.73
2023-04-21T11:34:24.319Z,23.76
2023-04-21T11:35:23.471Z,23.79
2023-04-21T11:36:23.499Z,23.82
2023-04-21T11:37:23.844Z,23.85
2023-04-21T11:38:23.593Z,23.87
2023-04-21T11:39:23.631Z,23.90
2023-04-21T11:40:23.657Z,23.92
2023-04-21T11:41:23.734Z,23.93
2023-04-21T11:42:23.726Z,23.96
2023-04-21T11:43:23.753Z,23.96
2023-04-21T11:44:23.793Z,23.97
2023-04-21T11:45:23.824Z,23.99
2023-04-21T11:46:23.934Z,24.00
2023-04-21T11:47:23.922Z,24.02
2023-04-21T11:48:23.933Z,24.04
2023-04-21T11:49:23.949Z,24.06
2023-04-21T11:50:23.972Z,24.08
2023-04-21T11:51:23.992Z,24.10
2023-04-21T11:52:24.027Z,24.11
2023-04-21T11:53:24.362Z,24.12
2023-04-21T11:54:24.082Z,24.15
2023-04-21T11:55:24.079Z,24.18
2023-04-21T11:56:24.120Z,24.21
2023-04-21T11:57:24.157Z,24.23
2023-04-21T11:58:24.174Z,24.26
2023-04-21T11:59:25.766Z,24.30
2023-04-21T12:00:24.155Z,24.32
2023-04-21T12:01:24.127Z,24.36
2023-04-21T12:02:24.305Z,24.38
2023-04-21T12:03:24.282Z,24.40
2023-04-21T12:04:24.254Z,24.42
2023-04-21T12:05:24.086Z,24.44
2023-04-21T12:06:24.171Z,24.46
2023-04-21T12:07:24.014Z,24.47
2023-04-21T12:08:23.975Z,24.47
2023-04-21T12:09:23.947Z,24.49
2023-04-21T12:10:23.919Z,24.51
2023-04-21T12:11:23.907Z,24.51
2023-04-21T12:12:23.896Z,24.53
2023-04-21T12:13:23.920Z,24.53
2023-04-21T12:14:24.228Z,24.54
2023-04-21T12:15:23.845Z,24.55
2023-04-21T12:16:23.849Z,24.56
2023-04-21T12:17:23.806Z,24.57
2023-04-21T12:18:23.776Z,24.59
2023-04-21T12:19:23.780Z,24.59
2023-04-21T12:20:23.782Z,24.60
2023-04-21T12:21:23.741Z,24.61
2023-04-21T12:22:23.727Z,24.62
2023-04-21T12:23:23.713Z,24.63
2023-04-21T12:24:23.696Z,24.64
2023-04-21T12:25:23.678Z,24.65
2023-04-21T12:26:23.657Z,24.65
2023-04-21T12:27:23.653Z,24.67
2023-04-21T12:28:23.609Z,24.66
2023-04-21T12:29:23.638Z,24.67
2023-04-21T12:30:23.596Z,24.69
2023-04-21T12:31:23.594Z,24.69
2023-04-21T12:32:23.511Z,24.70
2023-04-21T12:33:23.632Z,24.70
2023-04-21T12:34:23.469Z,24.71
2023-04-21T12:35:24.052Z,24.72
2023-04-21T12:36:23.408Z,24.72
2023-04-21T12:37:23.393Z,24.73
2023-04-21T12:38:23.368Z,24.74
2023-04-21T12:39:23.336Z,24.75
2023-04-21T12:40:23.327Z,24.76
2023-04-21T12:41:23.297Z,24.77
2023-04-21T12:42:23.274Z,24.78
2023-04-21T12:43:23.255Z,24.78
2023-04-21T12:44:23.216Z,24.78
2023-04-21T12:45:23.233Z,24.79
2023-04-21T12:46:23.197Z,24.79
2023-04-21T12:47:23.164Z,24.79
2023-04-21T12:48:23.106Z,24.79
2023-04-21T12:49:23.066Z,24.79
2023-04-21T12:50:23.042Z,24.80
2023-04-21T12:51:23.023Z,24.80
2023-04-21T12:52:22.996Z,24.80
2023-04-21T12:53:23.360Z,24.80